Time;durP1;ratioP1;P1;durP2;ratioP2;P2;SDS_P1;SDS_P2;PMS_P1;PMS_P2;Temp;Humidity;BMP_temperature;BMP_pressure;BME280_temperature;BME280_humidity;BME280_pressure;Samples;Min_cycle;Max_cycle;Signal;HPM_P1;HPM_P2
2021/01/18 00:01:16;;;;;;;11.63;8.18;;;2.80;80.40;;;;;;5064549;28;20074;-64
2021/01/18 00:03:42;;;;;;;12.32;9.07;;;2.80;80.30;;;;;;5062976;28;20048;-64
2021/01/18 00:06:08;;;;;;;13.65;9.32;;;2.80;80.30;;;;;;5062880;28;20036;-64
2021/01/18 00:08:33;;;;;;;11.23;8.25;;;2.80;80.10;;;;;;5064316;28;20041;-64
2021/01/18 00:10:59;;;;;;;11.35;8.23;;;2.90;80.10;;;;;;5063331;28;20033;-64
2021/01/18 00:13:25;;;;;;;12.27;8.60;;;2.90;80.10;;;;;;5062995;28;20033;-64
2021/01/18 00:15:50;;;;;;;11.30;7.60;;;2.90;80.00;;;;;;5062892;28;20037;-64
2021/01/18 00:18:16;;;;;;;10.30;7.53;;;2.90;80.50;;;;;;5062861;28;20052;-64
2021/01/18 00:20:41;;;;;;;9.10;6.95;;;2.90;80.30;;;;;;5062872;28;20099;-64
2021/01/18 00:23:07;;;;;;;9.98;7.22;;;2.90;80.00;;;;;;5064070;28;20048;-64
2021/01/18 00:25:32;;;;;;;8.88;6.82;;;2.90;80.10;;;;;;5064397;28;20077;-64
2021/01/18 00:27:58;;;;;;;9.18;7.20;;;2.90;79.90;;;;;;5062075;28;20102;-64
2021/01/18 00:30:24;;;;;;;9.15;6.70;;;2.90;79.90;;;;;;5062248;28;20032;-64
2021/01/18 00:32:50;;;;;;;9.93;6.63;;;2.90;80.10;;;;;;5062356;28;20037;-64
2021/01/18 00:35:17;;;;;;;8.43;6.50;;;2.90;80.00;;;;;;5063898;28;20036;-64
2021/01/18 00:37:49;;;;;;;8.68;6.30;;;3.00;79.90;;;;;;5064028;28;20043;-64
2021/01/18 00:40:16;;;;;;;9.25;7.00;;;2.90;79.70;;;;;;5062760;28;20091;-64
2021/01/18 00:42:42;;;;;;;8.02;6.13;;;2.90;80.00;;;;;;5062034;28;20037;-64
2021/01/18 00:45:09;;;;;;;7.43;6.18;;;2.90;79.90;;;;;;5062232;28;20224;-64
2021/01/18 00:47:44;;;;;;;7.63;6.00;;;2.90;80.00;;;;;;5063791;28;20044;-64
2021/01/18 00:50:12;;;;;;;8.05;6.15;;;2.90;80.10;;;;;;5061153;28;20024;-64
2021/01/18 00:52:41;;;;;;;8.50;6.07;;;3.00;80.00;;;;;;5062183;28;20036;-64
2021/01/18 00:55:10;;;;;;;8.15;6.13;;;3.00;79.60;;;;;;5061888;28;20079;-64
2021/01/18 00:57:35;;;;;;;7.53;5.50;;;3.00;79.70;;;;;;5061852;28;20041;-64
2021/01/18 01:00:01;;;;;;;7.38;5.30;;;2.90;79.90;;;;;;5061723;28;20040;-64
2021/01/18 01:02:26;;;;;;;6.45;5.32;;;2.90;79.80;;;;;;5063543;28;20033;-64
2021/01/18 01:04:52;;;;;;;7.50;5.55;;;3.00;79.80;;;;;;5062052;28;20044;-64
2021/01/18 01:07:18;;;;;;;7.88;5.68;;;2.90;79.60;;;;;;5063249;28;20029;-64
2021/01/18 01:09:43;;;;;;;6.65;5.45;;;3.00;79.80;;;;;;5061637;28;20037;-64
2021/01/18 01:12:09;;;;;;;10.55;5.97;;;3.00;79.50;;;;;;5061429;28;20040;-64
2021/01/18 01:14:35;;;;;;;9.13;5.15;;;3.00;79.40;;;;;;5062997;28;20037;-64
2021/01/18 01:17:01;;;;;;;9.13;6.72;;;2.90;79.50;;;;;;5061541;28;20348;-64
2021/01/18 01:19:26;;;;;;;8.10;5.60;;;2.90;79.70;;;;;;5063101;28;20043;-64
2021/01/18 01:21:52;;;;;;;6.45;5.38;;;3.00;79.70;;;;;;5061838;28;20056;-64
2021/01/18 01:24:19;;;;;;;7.35;5.18;;;3.00;79.60;;;;;;5061667;28;20036;-65
2021/01/18 01:26:45;;;;;;;6.50;4.88;;;2.90;79.70;;;;;;5061565;28;20385;-64
2021/01/18 01:29:11;;;;;;;8.40;5.38;;;2.90;79.70;;;;;;5063348;28;20039;-64
2021/01/18 01:31:36;;;;;;;6.25;4.82;;;2.90;79.50;;;;;;5063150;28;20316;-65
2021/01/18 01:34:02;;;;;;;7.18;4.90;;;2.90;79.70;;;;;;5060960;28;20044;-65
2021/01/18 01:36:28;;;;;;;8.32;5.25;;;3.00;79.50;;;;;;5060410;28;20083;-64
2021/01/18 01:38:53;;;;;;;6.22;4.63;;;2.90;79.40;;;;;;5061431;28;20044;-64
2021/01/18 01:41:19;;;;;;;7.32;4.93;;;3.00;79.60;;;;;;5062628;28;20407;-64
2021/01/18 01:43:44;;;;;;;9.20;5.00;;;3.00;79.50;;;;;;5063136;28;20039;-64
2021/01/18 01:46:10;;;;;;;6.50;4.70;;;3.00;79.40;;;;;;5061341;28;20036;-64
2021/01/18 01:48:36;;;;;;;5.97;4.57;;;3.00;79.50;;;;;;5061113;28;20032;-64
2021/01/18 01:51:01;;;;;;;6.43;4.97;;;3.00;79.50;;;;;;5059923;28;20190;-64
2021/01/18 01:53:30;;;;;;;6.78;5.15;;;3.00;79.20;;;;;;5061586;28;20344;-64
2021/01/18 01:55:58;;;;;;;6.03;4.60;;;3.10;79.30;;;;;;5043704;28;20064;-64
2021/01/18 01:58:23;;;;;;;7.72;5.15;;;3.10;79.20;;;;;;5062780;28;20189;-64
2021/01/18 02:00:49;;;;;;;5.78;4.70;;;3.10;79.10;;;;;;5059922;28;20048;-64
2021/01/18 02:03:47;;;;;;;5.85;4.63;;;3.10;78.90;;;;;;5061015;28;20037;-64
2021/01/18 02:06:13;;;;;;;6.20;4.78;;;3.10;79.10;;;;;;5053299;28;20032;-64
2021/01/18 02:08:38;;;;;;;6.22;4.47;;;3.00;79.00;;;;;;5062402;28;20103;-64
2021/01/18 02:11:04;;;;;;;6.13;4.53;;;3.10;79.30;;;;;;5061192;28;20036;-64
2021/01/18 02:13:54;;;;;;;6.82;5.07;;;3.00;79.40;;;;;;5062553;28;20033;-64
2021/01/18 02:16:54;;;;;;;6.25;4.50;;;3.00;79.20;;;;;;5061687;28;20033;-64
2021/01/18 02:19:52;;;;;;;7.15;4.13;;;3.00;79.10;;;;;;5060531;28;20036;-64
2021/01/18 02:22:33;;;;;;;8.15;4.88;;;3.00;79.40;;;;;;5059880;28;20037;-64
2021/01/18 02:25:22;;;;;;;5.53;4.40;;;3.00;79.50;;;;;;5061216;28;20029;-64
2021/01/18 02:28:12;;;;;;;6.30;4.57;;;3.10;79.20;;;;;;5044052;28;20122;-64
2021/01/18 02:30:49;;;;;;;6.43;4.80;;;3.00;78.90;;;;;;5060948;28;20052;-64
2021/01/18 02:33:41;;;;;;;6.75;4.80;;;3.00;79.10;;;;;;5060623;28;20363;-64
2021/01/18 02:36:25;;;;;;;;;;;3.10;79.20;;;;;;5060005;28;20033;-64
2021/01/18 02:39:17;;;;;;;6.88;4.85;;;3.10;79.10;;;;;;5060422;28;19905;-64
2021/01/18 02:42:02;;;;;;;6.53;4.70;;;3.10;78.90;;;;;;5057893;28;20344;-65
2021/01/18 02:44:28;;;;;;;6.28;5.10;;;3.20;79.00;;;;;;5061132;28;20336;-64
2021/01/18 02:46:53;;;;;;;6.45;5.10;;;3.20;78.90;;;;;;5059863;28;20037;-64
2021/01/18 02:49:20;;;;;;;7.30;5.50;;;3.10;79.10;;;;;;5062027;28;20041;-64
2021/01/18 02:51:47;;;;;;;7.60;5.95;;;3.10;79.10;;;;;;5060744;28;20041;-64
2021/01/18 02:54:13;;;;;;;8.15;6.03;;;3.20;78.80;;;;;;5062983;28;20283;-64
2021/01/18 02:56:40;;;;;;;8.80;6.25;;;3.10;78.90;;;;;;5065999;28;20037;-64
2021/01/18 02:59:05;;;;;;;8.55;6.53;;;3.10;79.00;;;;;;5064515;28;20112;-64
2021/01/18 03:01:34;;;;;;;8.65;6.63;;;3.20;78.80;;;;;;5064548;28;20390;-64
2021/01/18 03:04:05;;;;;;;8.73;7.20;;;3.20;79.10;;;;;;5064274;28;20220;-64
2021/01/18 03:06:46;;;;;;;9.30;6.80;;;3.20;78.90;;;;;;5064303;28;20092;-64
2021/01/18 03:09:19;;;;;;;8.82;6.88;;;3.20;78.80;;;;;;5062739;28;20041;-64
2021/01/18 03:11:47;;;;;;;9.38;6.85;;;3.10;79.00;;;;;;5063653;28;20049;-65
2021/01/18 03:14:16;;;;;;;10.27;6.70;;;3.10;79.10;;;;;;5065633;28;20044;-64
2021/01/18 03:16:45;;;;;;;8.40;6.22;;;3.10;79.30;;;;;;5066049;28;20104;-64
2021/01/18 03:19:10;;;;;;;8.98;6.07;;;3.10;79.30;;;;;;5062748;28;20339;-64
2021/01/18 03:21:36;;;;;;;8.27;6.13;;;3.10;79.30;;;;;;5045943;28;20040;-64
2021/01/18 03:24:01;;;;;;;8.73;6.15;;;3.10;79.20;;;;;;5063859;28;20096;-64
2021/01/18 03:26:27;;;;;;;9.05;6.55;;;3.10;79.00;;;;;;5065233;28;20037;-64
2021/01/18 03:28:53;;;;;;;10.30;6.10;;;3.10;79.00;;;;;;5062460;28;20051;-64
2021/01/18 03:31:19;;;;;;;8.27;5.45;;;3.10;78.90;;;;;;5065129;28;20064;-64
2021/01/18 03:33:44;;;;;;;9.45;5.82;;;3.10;78.80;;;;;;5063485;28;20063;-64
2021/01/18 03:36:10;;;;;;;10.00;6.43;;;3.00;79.40;;;;;;5062175;28;20045;-64
2021/01/18 03:38:36;;;;;;;9.40;6.00;;;3.10;79.40;;;;;;5064902;28;20108;-64
2021/01/18 03:41:02;;;;;;;10.48;6.70;;;3.10;79.30;;;;;;5063747;28;20044;-64
2021/01/18 03:43:27;;;;;;;10.15;6.63;;;3.10;78.90;;;;;;5064834;28;20079;-64
2021/01/18 03:45:53;;;;;;;9.13;6.07;;;3.20;78.80;;;;;;5063515;28;20038;-64
2021/01/18 03:48:19;;;;;;;8.32;5.95;;;3.20;78.90;;;;;;5062325;28;20036;-64
2021/01/18 03:50:44;;;;;;;9.70;6.53;;;3.00;78.80;;;;;;5063697;28;20328;-64
2021/01/18 03:53:10;;;;;;;11.45;6.53;;;3.00;78.80;;;;;;5064645;28;20048;-64
2021/01/18 03:55:36;;;;;;;10.68;6.20;;;3.00;79.40;;;;;;5064968;28;20037;-64
2021/01/18 03:58:01;;;;;;;8.95;6.15;;;3.10;79.00;;;;;;5063365;28;20037;-64
2021/01/18 04:00:28;;;;;;;9.40;6.15;;;3.00;78.90;;;;;;5063150;28;20037;-64
2021/01/18 04:02:54;;;;;;;10.48;6.00;;;3.00;78.70;;;;;;5061772;28;20032;-64
2021/01/18 04:05:20;;;;;;;9.98;5.93;;;3.00;79.00;;;;;;5046594;28;20328;-64
2021/01/18 04:07:46;;;;;;;9.15;5.65;;;3.10;78.90;;;;;;5064582;28;20107;-64
2021/01/18 04:10:13;;;;;;;8.98;5.70;;;3.00;78.90;;;;;;5063374;28;20036;-64
2021/01/18 04:12:42;;;;;;;7.72;5.30;;;3.10;78.80;;;;;;5062529;28;20049;-64
2021/01/18 04:15:09;;;;;;;10.88;5.43;;;3.10;78.30;;;;;;5062887;28;20040;-64
2021/01/18 04:17:35;;;;;;;8.50;5.70;;;3.10;78.50;;;;;;5064768;28;20299;-64
2021/01/18 04:20:01;;;;;;;9.95;5.63;;;3.10;78.50;;;;;;5063040;28;20033;-64
2021/01/18 04:22:26;;;;;;;8.65;5.57;;;3.20;78.50;;;;;;5063815;28;20036;-64
2021/01/18 04:24:52;;;;;;;9.68;5.30;;;3.10;78.70;;;;;;5062697;28;20033;-64
2021/01/18 04:27:17;;;;;;;10.23;5.45;;;3.10;78.60;;;;;;5062589;28;20043;-64
2021/01/18 04:29:43;;;;;;;11.02;5.70;;;3.10;78.90;;;;;;5062540;28;20258;-64
2021/01/18 04:32:11;;;;;;;9.32;5.30;;;3.10;78.50;;;;;;5062684;28;20339;-64
2021/01/18 04:34:36;;;;;;;8.43;5.40;;;3.00;78.50;;;;;;5063596;28;20060;-64
2021/01/18 04:37:02;;;;;;;9.10;5.55;;;3.00;78.70;;;;;;5062390;28;20052;-64
2021/01/18 04:39:27;;;;;;;10.20;5.55;;;3.10;78.60;;;;;;5062499;28;20099;-64
2021/01/18 04:41:53;;;;;;;10.25;5.78;;;3.10;78.50;;;;;;5062430;28;20041;-64
2021/01/18 04:44:19;;;;;;;10.32;5.28;;;3.10;78.20;;;;;;5064006;28;20329;-64
2021/01/18 04:46:45;;;;;;;7.57;5.32;;;3.10;78.60;;;;;;5062740;28;20033;-64
2021/01/18 04:49:12;;;;;;;10.18;5.22;;;3.10;78.30;;;;;;5061881;28;20044;-65
2021/01/18 04:51:42;;;;;;;9.70;5.07;;;3.10;78.50;;;;;;5062398;28;20041;-64
2021/01/18 04:54:12;;;;;;;9.68;5.15;;;3.10;78.40;;;;;;5060847;28;20041;-64
2021/01/18 04:56:59;;;;;;;10.32;5.65;;;3.00;78.10;;;;;;5063636;28;20104;-64
2021/01/18 04:59:27;;;;;;;9.48;5.43;;;3.00;78.30;;;;;;5061566;28;20033;-64
2021/01/18 05:01:53;;;;;;;10.65;5.38;;;3.00;78.40;;;;;;5061181;28;20351;-64
2021/01/18 05:04:26;;;;;;;12.40;5.47;;;3.10;78.60;;;;;;5062243;28;20100;-64
2021/01/18 05:06:57;;;;;;;9.07;5.18;;;3.10;78.20;;;;;;5045122;28;20036;-66
2021/01/18 05:09:27;;;;;;;8.35;5.45;;;3.10;78.50;;;;;;5060226;28;20037;-67
2021/01/18 05:11:53;;;;;;;9.70;5.30;;;3.10;78.90;;;;;;5061428;28;20328;-67
2021/01/18 05:14:18;;;;;;;11.55;5.72;;;3.00;79.60;;;;;;5062551;28;20045;-66
2021/01/18 05:16:46;;;;;;;11.93;6.15;;;2.90;79.60;;;;;;5045481;28;20099;-67
2021/01/18 05:19:12;;;;;;;10.57;5.35;;;3.00;79.60;;;;;;5061282;28;20041;-67
2021/01/18 05:21:39;;;;;;;9.20;5.68;;;2.90;80.50;;;;;;5061479;28;20047;-67
2021/01/18 05:24:06;;;;;;;13.50;6.07;;;2.90;80.40;;;;;;5060274;28;20063;-67
2021/01/18 05:26:31;;;;;;;8.98;5.38;;;3.00;80.40;;;;;;5062780;28;20037;-67
2021/01/18 05:28:57;;;;;;;11.23;5.85;;;3.00;80.30;;;;;;5061380;28;20078;-67
2021/01/18 05:31:28;;;;;;;13.48;5.60;;;3.00;79.80;;;;;;5063215;28;20036;-66
2021/01/18 05:33:57;;;;;;;;;;;3.00;79.70;;;;;;5061118;28;20092;-66
2021/01/18 05:36:38;;;;;;;10.95;6.00;;;2.90;79.50;;;;;;5060834;28;19905;-66
2021/01/18 05:39:16;;;;;;;10.15;5.80;;;2.90;79.40;;;;;;5061044;28;20034;-66
2021/01/18 05:41:42;;;;;;;10.27;5.13;;;2.80;79.70;;;;;;5061180;28;20245;-67
2021/01/18 05:44:08;;;;;;;10.82;6.00;;;2.80;79.70;;;;;;5061740;28;20349;-66
2021/01/18 05:46:41;;;;;;;10.25;5.78;;;2.80;79.70;;;;;;5062807;28;20037;-66
2021/01/18 05:49:18;;;;;;;10.25;5.28;;;2.80;80.00;;;;;;5060982;28;20055;-66
2021/01/18 05:51:53;;;;;;;12.18;5.43;;;2.90;79.60;;;;;;5060728;28;20393;-66
2021/01/18 05:54:22;;;;;;;8.85;5.50;;;3.00;79.30;;;;;;5059537;28;20040;-66
2021/01/18 05:56:48;;;;;;;13.07;6.68;;;3.00;79.10;;;;;;5059042;28;20079;-66
2021/01/18 05:59:18;;;;;;;9.73;5.60;;;3.00;79.00;;;;;;5061402;28;20335;-66
2021/01/18 06:01:44;;;;;;;14.02;6.00;;;3.00;78.70;;;;;;5062300;28;20047;-67
2021/01/18 06:04:17;;;;;;;10.05;5.95;;;3.10;78.80;;;;;;5060095;28;20224;-66
2021/01/18 06:06:58;;;;;;;10.18;5.40;;;2.90;78.80;;;;;;5060016;28;20232;-66
2021/01/18 06:09:41;;;;;;;8.80;5.22;;;2.90;79.40;;;;;;5060700;28;20121;-67
2021/01/18 06:12:39;;;;;;;10.07;6.20;;;2.90;79.10;;;;;;5060098;28;20323;-66
2021/01/18 06:15:15;;;;;;;10.25;5.72;;;3.00;79.20;;;;;;5026547;28;20450;-64
2021/01/18 06:17:48;;;;;;;10.82;5.90;;;3.00;78.70;;;;;;5059297;28;20040;-67
2021/01/18 06:20:26;;;;;;;9.50;5.80;;;3.00;78.90;;;;;;5062346;28;20204;-65
2021/01/18 06:22:52;;;;;;;9.63;6.07;;;3.00;78.70;;;;;;5060867;28;20039;-66
2021/01/18 06:25:18;;;;;;;12.27;6.05;;;3.00;78.90;;;;;;5061011;28;20041;-66
2021/01/18 06:27:44;;;;;;;11.45;6.13;;;2.90;79.30;;;;;;5063365;28;20096;-65
2021/01/18 06:30:23;;;;;;;8.77;5.40;;;3.10;79.50;;;;;;5064523;28;20087;-66
2021/01/18 06:32:52;;;;;;;11.15;6.00;;;3.00;78.90;;;;;;5064053;28;20036;-67
2021/01/18 06:35:31;;;;;;;11.20;5.15;;;3.00;79.30;;;;;;5066164;28;20252;-66
2021/01/18 06:38:02;;;;;;;8.82;5.72;;;3.00;79.20;;;;;;5063504;28;20037;-67
2021/01/18 06:40:29;;;;;;;9.83;5.70;;;2.90;79.60;;;;;;5049444;28;20076;-66
2021/01/18 06:42:54;;;;;;;8.60;5.35;;;3.00;78.90;;;;;;5062758;28;20468;-66
2021/01/18 06:45:20;;;;;;;9.85;5.45;;;3.10;79.20;;;;;;5062878;28;20092;-66
2021/01/18 06:47:46;;;;;;;10.75;5.55;;;3.10;78.50;;;;;;5063839;28;20036;-65
2021/01/18 06:50:11;;;;;;;10.50;5.35;;;3.00;78.60;;;;;;5065690;28;20098;-64
2021/01/18 06:52:37;;;;;;;9.80;5.75;;;3.10;78.60;;;;;;5063986;28;20223;-65
2021/01/18 06:55:06;;;;;;;11.65;6.10;;;3.10;78.50;;;;;;5062474;28;20075;-67
2021/01/18 06:57:47;;;;;;;11.05;5.88;;;3.10;78.70;;;;;;5045992;28;20232;-66
2021/01/18 07:00:13;;;;;;;9.40;5.78;;;2.90;78.90;;;;;;5063899;28;20039;-66
2021/01/18 07:02:40;;;;;;;13.23;6.20;;;2.90;79.00;;;;;;5065427;28;20040;-66
2021/01/18 07:05:13;;;;;;;10.73;5.65;;;2.80;79.60;;;;;;5062580;28;20033;-66
2021/01/18 07:07:39;;;;;;;11.90;5.30;;;2.90;79.50;;;;;;5065626;28;20430;-67
2021/01/18 07:10:11;;;;;;;9.45;5.35;;;3.10;79.00;;;;;;5062149;28;20029;-66
2021/01/18 07:12:36;;;;;;;9.82;5.68;;;3.10;78.80;;;;;;5062417;28;20052;-67
2021/01/18 07:15:06;;;;;;;9.25;5.45;;;3.00;78.80;;;;;;5063274;28;20044;-67
2021/01/18 07:17:51;;;;;;;11.80;6.60;;;3.10;79.00;;;;;;5064342;28;20041;-68
2021/01/18 07:20:27;;;;;;;9.77;6.00;;;3.10;78.90;;;;;;5063176;28;20096;-67
2021/01/18 07:23:07;;;;;;;9.98;5.85;;;3.10;78.50;;;;;;5063517;28;20041;-65
2021/01/18 07:25:37;;;;;;;11.93;6.38;;;3.00;78.80;;;;;;5065551;28;20224;-65
2021/01/18 07:28:03;;;;;;;10.57;6.53;;;3.00;78.90;;;;;;5063650;28;20087;-67
2021/01/18 07:30:33;;;;;;;10.75;5.93;;;3.00;78.80;;;;;;5062197;28;20037;-64
2021/01/18 07:33:09;;;;;;;10.18;6.22;;;3.10;78.80;;;;;;5063266;28;20041;-64
2021/01/18 07:35:35;;;;;;;13.00;7.03;;;3.00;78.90;;;;;;5065096;28;20043;-64
2021/01/18 07:38:20;;;;;;;10.93;6.03;;;3.10;79.30;;;;;;5063119;28;20326;-65
2021/01/18 07:41:11;;;;;;;11.20;6.22;;;3.10;79.10;;;;;;5064798;28;20057;-66
2021/01/18 07:43:47;;;;;;;12.73;6.63;;;3.00;79.20;;;;;;5062231;28;20037;-66
2021/01/18 07:46:25;;;;;;;11.13;6.65;;;2.90;80.10;;;;;;5062585;28;20221;-66
2021/01/18 07:49:12;;;;;;;10.55;6.55;;;2.90;80.30;;;;;;5062753;28;20040;-65
2021/01/18 07:51:38;;;;;;;11.75;6.53;;;3.10;79.80;;;;;;5061795;28;20104;-66
2021/01/18 07:54:03;;;;;;;12.80;7.10;;;3.20;79.40;;;;;;5062335;28;20040;-66
2021/01/18 07:56:30;;;;;;;12.38;7.78;;;3.10;79.10;;;;;;5064431;28;20100;-67
2021/01/18 07:59:02;;;;;;;12.75;6.93;;;3.10;80.00;;;;;;5062948;28;20040;-64
2021/01/18 08:01:28;;;;;;;12.10;6.88;;;3.20;79.50;;;;;;5063162;28;20098;-66
2021/01/18 08:03:54;;;;;;;11.35;6.65;;;3.10;79.40;;;;;;5062230;28;20033;-65
2021/01/18 08:06:19;;;;;;;12.45;6.68;;;3.10;79.50;;;;;;5062694;28;20040;-64
2021/01/18 08:08:45;;;;;;;15.15;7.35;;;3.20;79.50;;;;;;5061079;28;20041;-65
2021/01/18 08:11:18;;;;;;;13.68;7.03;;;3.20;79.90;;;;;;5064180;28;20055;-65
2021/01/18 08:13:59;;;;;;;11.60;6.65;;;3.10;80.30;;;;;;5062735;28;20033;-65
2021/01/18 08:16:38;;;;;;;10.52;6.57;;;3.10;80.20;;;;;;5044983;28;20036;-65
2021/01/18 08:19:19;;;;;;;15.20;7.05;;;3.20;80.00;;;;;;5061426;28;20092;-65
2021/01/18 08:21:47;;;;;;;14.65;6.97;;;3.30;79.70;;;;;;5062753;28;20121;-65
2021/01/18 08:24:35;;;;;;;14.18;6.85;;;3.20;79.60;;;;;;5062416;28;20096;-65
2021/01/18 08:27:02;;;;;;;12.05;7.05;;;3.30;79.60;;;;;;5056257;28;20048;-65
2021/01/18 08:29:41;;;;;;;12.82;7.10;;;3.20;79.30;;;;;;5064082;28;20143;-65
2021/01/18 08:32:31;;;;;;;11.10;6.50;;;3.20;78.90;;;;;;5061138;28;20041;-65
2021/01/18 08:35:07;;;;;;;11.98;6.63;;;3.20;79.00;;;;;;5062065;28;20336;-66
2021/01/18 08:37:34;;;;;;;10.82;5.95;;;3.20;79.50;;;;;;5063412;28;20223;-65
2021/01/18 08:40:01;;;;;;;12.77;6.32;;;3.20;78.80;;;;;;5062067;28;20325;-65
2021/01/18 08:42:34;;;;;;;10.07;5.85;;;3.20;79.00;;;;;;5061889;28;20029;-65
2021/01/18 08:45:20;;;;;;;9.68;5.82;;;3.00;79.10;;;;;;5061806;28;20041;-65
2021/01/18 08:48:06;;;;;;;12.30;5.55;;;3.00;79.90;;;;;;5061883;28;20385;-65
2021/01/18 08:50:46;;;;;;;10.90;5.97;;;3.00;80.00;;;;;;5062692;28;20025;-62
2021/01/18 08:53:29;;;;;;;13.02;5.93;;;3.10;80.60;;;;;;5062277;28;20033;-63
2021/01/18 08:55:59;;;;;;;9.95;5.43;;;3.10;81.00;;;;;;5060412;28;20040;-63
2021/01/18 08:58:38;;;;;;;15.50;6.55;;;3.20;81.30;;;;;;5062213;28;20036;-64
2021/01/18 09:01:09;;;;;;;12.05;5.20;;;3.10;80.70;;;;;;5061920;28;20041;-64
2021/01/18 09:03:35;;;;;;;12.57;6.10;;;3.20;80.70;;;;;;5061348;28;20324;-64
2021/01/18 09:06:00;;;;;;;10.55;5.50;;;3.20;79.60;;;;;;5061762;28;20045;-64
2021/01/18 09:08:27;;;;;;;10.75;5.68;;;3.10;79.90;;;;;;5063608;28;20088;-64
2021/01/18 09:11:02;;;;;;;15.07;5.75;;;3.30;79.70;;;;;;5061686;28;20037;-64
2021/01/18 09:13:30;;;;;;;10.57;5.32;;;3.20;79.50;;;;;;5063446;28;20083;-64
2021/01/18 09:15:57;;;;;;;11.57;6.40;;;3.20;80.00;;;;;;5061670;28;20307;-64
2021/01/18 09:18:23;;;;;;;12.57;6.40;;;3.20;80.20;;;;;;5061142;28;20044;-64
2021/01/18 09:20:49;;;;;;;17.35;7.03;;;3.30;80.40;;;;;;5061377;28;20044;-64
2021/01/18 09:23:16;;;;;;;12.15;5.50;;;3.30;80.20;;;;;;5062723;28;20028;-64
2021/01/18 09:25:41;;;;;;;8.15;5.15;;;3.30;80.50;;;;;;5063353;28;20259;-64
2021/01/18 09:28:09;;;;;;;13.85;5.32;;;3.30;79.70;;;;;;5061670;28;20049;-64
2021/01/18 09:30:35;;;;;;;12.32;4.53;;;3.30;79.20;;;;;;5060900;28;20383;-65
2021/01/18 09:33:03;;;;;;;11.55;5.10;;;3.20;78.50;;;;;;5061031;28;20076;-65
2021/01/18 09:35:29;;;;;;;8.80;4.68;;;3.00;78.70;;;;;;5062779;28;20057;-65
2021/01/18 09:37:55;;;;;;;9.75;5.07;;;3.20;79.10;;;;;;5061155;28;20087;-66
2021/01/18 09:40:21;;;;;;;9.48;4.30;;;3.20;78.70;;;;;;5062711;28;20041;-64
2021/01/18 09:42:46;;;;;;;7.90;4.28;;;3.20;78.60;;;;;;5060751;28;20219;-64
2021/01/18 09:45:12;;;;;;;8.95;4.40;;;3.30;79.60;;;;;;5060787;28;20116;-65
2021/01/18 09:47:38;;;;;;;11.98;4.68;;;3.20;78.90;;;;;;5062338;28;20096;-65
2021/01/18 09:50:09;;;;;;;8.73;4.63;;;3.20;78.50;;;;;;5060714;28;20082;-65
2021/01/18 09:52:48;;;;;;;;;;;3.20;78.30;;;;;;5063419;28;20033;-65
2021/01/18 09:55:17;;;;;;;11.48;4.18;;;3.30;78.40;;;;;;5060096;28;19975;-65
2021/01/18 09:57:56;;;;;;;8.35;4.18;;;3.40;77.30;;;;;;5061270;28;20033;-65
2021/01/18 10:00:22;;;;;;;9.18;4.30;;;3.50;77.30;;;;;;5043672;28;20052;-65
2021/01/18 10:02:49;;;;;;;8.38;4.10;;;3.40;77.20;;;;;;5059895;28;20040;-67
2021/01/18 10:05:26;;;;;;;11.05;4.10;;;3.50;76.60;;;;;;5059325;28;20037;-66
2021/01/18 10:07:53;;;;;;;7.35;3.63;;;3.60;76.80;;;;;;5060301;28;20071;-67
2021/01/18 10:10:18;;;;;;;8.50;4.57;;;3.70;76.00;;;;;;5062664;28;20067;-67
2021/01/18 10:12:52;;;;;;;8.45;3.88;;;3.60;75.50;;;;;;5060579;28;20045;-67
2021/01/18 10:15:27;;;;;;;8.98;4.20;;;3.80;76.00;;;;;;5060776;28;20048;-67
2021/01/18 10:17:54;;;;;;;6.63;3.70;;;3.80;76.00;;;;;;5060713;28;20032;-65
2021/01/18 10:20:28;;;;;;;11.13;4.07;;;3.90;75.30;;;;;;5061497;28;20037;-67
2021/01/18 10:22:54;;;;;;;12.70;4.30;;;3.90;75.10;;;;;;5001603;28;20412;-68
2021/01/18 10:25:20;;;;;;;14.05;5.10;;;3.90;74.90;;;;;;5061227;28;20076;-68
2021/01/18 10:27:53;;;;;;;9.43;4.55;;;3.90;74.60;;;;;;5060587;28;20260;-67
2021/01/18 10:30:21;;;;;;;8.90;4.70;;;3.90;74.30;;;;;;5059528;28;20033;-66
2021/01/18 10:32:49;;;;;;;11.35;4.65;;;3.90;74.20;;;;;;5059229;28;20083;-68
2021/01/18 10:35:26;;;;;;;11.65;4.80;;;3.90;74.40;;;;;;5062152;28;20033;-67
2021/01/18 10:37:52;;;;;;;10.65;4.65;;;3.90;74.40;;;;;;5061085;28;20037;-66
2021/01/18 10:40:22;;;;;;;10.50;4.65;;;3.90;73.90;;;;;;5060949;28;20079;-65
2021/01/18 10:42:52;;;;;;;10.90;4.05;;;3.80;73.70;;;;;;5060873;28;20075;-66
2021/01/18 10:45:25;;;;;;;8.77;3.97;;;3.70;73.90;;;;;;5059679;28;20060;-64
2021/01/18 10:47:57;;;;;;;8.75;4.55;;;3.80;74.40;;;;;;5059462;28;20164;-63
2021/01/18 10:50:25;;;;;;;8.90;4.07;;;3.90;74.10;;;;;;5062189;28;20039;-64
2021/01/18 10:53:00;;;;;;;8.82;4.47;;;3.90;73.90;;;;;;5059690;28;20041;-64
2021/01/18 10:55:25;;;;;;;8.45;4.97;;;3.90;74.00;;;;;;5060933;28;20033;-64
2021/01/18 10:57:52;;;;;;;11.68;5.00;;;3.90;73.60;;;;;;5050808;28;20328;-65
2021/01/18 11:00:27;;;;;;;9.80;4.65;;;4.00;74.10;;;;;;5009819;28;20033;-63
2021/01/18 11:03:03;;;;;;;7.93;4.40;;;4.00;73.40;;;;;;5059346;28;20106;-64
2021/01/18 11:05:36;;;;;;;12.00;4.68;;;3.90;72.70;;;;;;5062084;28;20037;-63
2021/01/18 11:08:03;;;;;;;8.38;4.22;;;3.90;73.50;;;;;;5060263;28;20111;-64
2021/01/18 11:10:29;;;;;;;10.02;4.43;;;3.90;73.30;;;;;;5061824;28;20228;-65
2021/01/18 11:13:04;;;;;;;8.82;4.47;;;3.90;73.50;;;;;;5060681;28;20069;-64
2021/01/18 11:15:40;;;;;;;7.15;4.00;;;3.90;73.40;;;;;;5062846;28;20037;-68
2021/01/18 11:18:08;;;;;;;9.25;4.40;;;3.90;73.10;;;;;;5063453;28;20216;-69
2021/01/18 11:20:33;;;;;;;9.13;5.05;;;3.90;73.40;;;;;;5064249;28;20032;-69
2021/01/18 11:22:59;;;;;;;8.02;4.32;;;4.10;73.40;;;;;;5062725;28;20036;-66
2021/01/18 11:25:25;;;;;;;8.05;4.18;;;4.10;73.00;;;;;;5065211;28;20044;-67
2021/01/18 11:27:50;;;;;;;8.57;4.35;;;4.10;73.00;;;;;;5062341;28;20104;-67
2021/01/18 11:30:16;;;;;;;8.38;4.38;;;4.10;73.00;;;;;;5045475;28;20036;-65
2021/01/18 11:32:42;;;;;;;12.05;5.35;;;4.10;72.50;;;;;;5063314;28;20209;-65
2021/01/18 11:35:09;;;;;;;11.73;4.88;;;4.10;72.60;;;;;;5063768;28;20060;-65
2021/01/18 11:37:35;;;;;;;11.35;4.85;;;4.10;72.50;;;;;;5065008;28;20041;-67
2021/01/18 11:40:05;;;;;;;8.88;4.40;;;4.10;73.40;;;;;;5063468;28;20224;-68
2021/01/18 11:42:33;;;;;;;7.38;4.38;;;4.20;72.10;;;;;;5063282;28;20041;-65
2021/01/18 11:44:59;;;;;;;7.63;4.22;;;4.20;72.50;;;;;;5063705;28;20091;-63
2021/01/18 11:47:31;;;;;;;7.32;4.70;;;4.20;72.50;;;;;;5064800;28;20068;-67
2021/01/18 11:49:56;;;;;;;;;;;4.20;72.70;;;;;;5062893;28;20090;-66
2021/01/18 11:52:22;;;;;;;8.07;4.10;;;4.20;73.00;;;;;;5064452;28;19940;-67
2021/01/18 11:54:47;;;;;;;7.00;4.10;;;4.20;72.90;;;;;;5062962;28;20040;-70
2021/01/18 11:57:13;;;;;;;8.90;4.30;;;4.20;72.50;;;;;;5062820;28;20060;-66
2021/01/18 11:59:38;;;;;;;8.40;4.03;;;4.30;73.00;;;;;;5064952;28;20220;-67
2021/01/18 12:02:04;;;;;;;7.45;3.92;;;4.30;73.50;;;;;;5062901;28;20033;-69
2021/01/18 12:04:30;;;;;;;8.50;4.05;;;4.30;72.50;;;;;;5063130;28;20351;-68
2021/01/18 12:06:55;;;;;;;11.45;4.25;;;4.40;72.10;;;;;;5061806;28;20269;-68
2021/01/18 12:09:21;;;;;;;11.25;3.95;;;4.40;72.30;;;;;;5061831;28;20044;-68
2021/01/18 12:11:46;;;;;;;7.18;4.00;;;4.40;72.00;;;;;;5061879;28;20099;-68
2021/01/18 12:14:12;;;;;;;6.97;3.75;;;4.40;71.90;;;;;;5063112;28;20128;-69
2021/01/18 12:16:37;;;;;;;11.50;3.90;;;4.40;71.00;;;;;;5064108;28;20139;-69
2021/01/18 12:19:03;;;;;;;8.60;4.03;;;4.40;70.50;;;;;;5062587;28;20092;-68
2021/01/18 12:21:29;;;;;;;10.40;4.70;;;4.40;70.00;;;;;;5061164;28;20044;-68
2021/01/18 12:23:54;;;;;;;7.53;3.30;;;4.40;69.60;;;;;;5061660;28;20064;-69
2021/01/18 12:26:20;;;;;;;8.80;3.65;;;4.50;69.80;;;;;;5064314;28;20037;-69
2021/01/18 12:28:46;;;;;;;7.45;3.53;;;4.60;70.10;;;;;;5062668;28;20043;-68
2021/01/18 12:31:12;;;;;;;7.45;3.10;;;4.60;69.80;;;;;;5061158;28;20079;-68
2021/01/18 12:33:38;;;;;;;7.25;3.10;;;4.60;70.00;;;;;;5062223;28;20041;-69
2021/01/18 12:36:04;;;;;;;7.47;3.00;;;4.70;69.50;;;;;;5061995;28;20029;-68
2021/01/18 12:38:29;;;;;;;9.98;3.05;;;4.70;68.40;;;;;;5064029;28;20029;-69
2021/01/18 12:40:55;;;;;;;5.85;2.80;;;4.70;68.90;;;;;;5044253;28;20088;-69
2021/01/18 12:43:21;;;;;;;5.18;2.60;;;4.60;68.50;;;;;;5046213;28;20041;-68
2021/01/18 12:45:47;;;;;;;5.60;2.63;;;4.60;69.10;;;;;;5062221;28;20221;-68
2021/01/18 12:48:12;;;;;;;5.35;3.05;;;4.70;69.30;;;;;;5060897;28;20189;-66
2021/01/18 12:50:39;;;;;;;7.72;2.95;;;4.80;69.00;;;;;;5063768;28;20041;-67
2021/01/18 12:53:05;;;;;;;5.32;2.72;;;4.70;67.60;;;;;;5061572;28;20090;-68
2021/01/18 12:55:30;;;;;;;5.28;3.00;;;4.70;68.50;;;;;;5062600;28;20056;-69
2021/01/18 12:57:56;;;;;;;6.68;2.88;;;4.80;68.20;;;;;;5060686;28;20033;-69
2021/01/18 13:00:22;;;;;;;7.03;3.05;;;4.80;69.10;;;;;;5061309;28;20064;-69
2021/01/18 13:02:47;;;;;;;5.95;2.90;;;4.70;68.50;;;;;;5059848;28;20112;-70
2021/01/18 13:05:13;;;;;;;7.45;2.97;;;4.70;68.60;;;;;;5061972;28;20029;-69